createdAt,value
2018-02-19T00:01:11.122Z,12.88
2018-02-19T00:03:38.644Z,12.40
2018-02-19T00:06:06.156Z,11.95
2018-02-19T00:08:33.677Z,11.27
2018-02-19T00:11:01.188Z,10.55
2018-02-19T00:13:28.717Z,11.57
2018-02-19T00:15:56.242Z,9.85
2018-02-19T00:18:24.514Z,9.85
2018-02-19T00:20:52.034Z,11.18
2018-02-19T00:23:19.567Z,11.12
2018-02-19T00:25:47.179Z,12.27
2018-02-19T00:28:14.842Z,11.20
2018-02-19T00:30:42.370Z,10.55
2018-02-19T00:33:09.896Z,10.55
2018-02-19T00:35:37.411Z,11.52
2018-02-19T00:38:04.948Z,11.12
2018-02-19T00:40:33.220Z,11.32
2018-02-19T00:43:00.736Z,11.23
2018-02-19T00:45:29.018Z,11.45
2018-02-19T00:47:56.543Z,10.32
2018-02-19T00:50:24.049Z,9.88
2018-02-19T00:52:51.553Z,11.07
2018-02-19T00:55:19.097Z,10.60
2018-02-19T00:57:46.632Z,10.02
2018-02-19T01:00:14.157Z,11.48
2018-02-19T01:02:42.428Z,10.88
2018-02-19T01:05:09.940Z,11.05
2018-02-19T01:07:37.560Z,13.10
2018-02-19T01:10:05.841Z,10.15
2018-02-19T01:12:34.143Z,11.20
2018-02-19T01:15:01.661Z,11.30
2018-02-19T01:17:29.366Z,10.50
2018-02-19T01:19:57.670Z,12.55
2018-02-19T01:22:25.190Z,12.82
2018-02-19T01:24:52.861Z,11.20
2018-02-19T01:27:20.384Z,12.30
2018-02-19T01:29:48.674Z,11.32
2018-02-19T01:32:16.187Z,13.10
2018-02-19T01:34:43.690Z,11.05
2018-02-19T01:37:11.958Z,10.48
2018-02-19T01:39:40.254Z,10.50
2018-02-19T01:42:07.873Z,10.55
2018-02-19T01:44:35.415Z,11.73
2018-02-19T01:47:02.923Z,9.80
2018-02-19T01:49:31.203Z,10.65
2018-02-19T01:51:59.480Z,11.55
2018-02-19T01:54:26.972Z,9.27
2018-02-19T01:56:54.536Z,12.00
2018-02-19T01:59:22.249Z,11.50
2018-02-19T02:01:49.780Z,11.25
2018-02-19T02:04:17.303Z,10.57
2018-02-19T02:06:44.824Z,12.82
2018-02-19T02:09:12.356Z,8.35
2018-02-19T02:11:39.878Z,9.88
2018-02-19T02:14:07.447Z,10.98
2018-02-19T02:16:34.994Z,9.95
2018-02-19T02:19:02.605Z,9.88
2018-02-19T02:21:30.117Z,11.40
2018-02-19T02:23:57.706Z,10.10
2018-02-19T02:26:25.222Z,9.55
2018-02-19T02:28:53.542Z,10.07
2018-02-19T02:31:21.048Z,12.00
2018-02-19T02:33:48.642Z,10.73
2018-02-19T02:36:16.382Z,10.18
2018-02-19T02:38:44.068Z,10.25
2018-02-19T02:41:11.595Z,10.13
2018-02-19T02:43:39.874Z,9.05
2018-02-19T02:46:08.169Z,11.77
2018-02-19T02:48:35.707Z,10.40
2018-02-19T02:51:04.066Z,12.52
2018-02-19T02:53:31.708Z,11.57
2018-02-19T02:55:59.211Z,10.73
2018-02-19T02:58:26.840Z,9.27
2018-02-19T03:00:54.354Z,10.18
2018-02-19T03:03:21.934Z,9.65
2018-02-19T03:05:50.227Z,11.00
2018-02-19T03:08:17.727Z,11.27
2018-02-19T03:10:46.001Z,10.88
2018-02-19T03:13:14.284Z,11.63
2018-02-19T03:15:42.577Z,9.63
2018-02-19T03:18:10.223Z,9.27
2018-02-19T03:20:38.493Z,9.85
2018-02-19T03:23:06.768Z,9.65
2018-02-19T03:25:35.039Z,6.20
2018-02-19T03:28:02.683Z,9.80
2018-02-19T03:30:30.224Z,10.13
2018-02-19T03:32:57.831Z,12.95
2018-02-19T03:35:26.260Z,11.45
2018-02-19T03:37:53.887Z,12.07
2018-02-19T03:40:21.412Z,10.57
2018-02-19T03:42:49.029Z,10.45
2018-02-19T03:45:16.582Z,9.10
2018-02-19T03:47:44.089Z,11.55
2018-02-19T03:50:11.689Z,10.52
2018-02-19T03:52:40.008Z,10.50
2018-02-19T03:55:07.543Z,11.23
2018-02-19T03:57:35.043Z,11.00
2018-02-19T04:00:02.558Z,10.32
2018-02-19T04:02:30.159Z,11.12
2018-02-19T04:04:57.684Z,12.05
2018-02-19T04:07:25.213Z,11.65
2018-02-19T04:09:52.777Z,13.30
2018-02-19T04:12:21.163Z,11.85
2018-02-19T04:14:48.719Z,12.18
2018-02-19T04:17:17.034Z,11.60
2018-02-19T04:19:44.569Z,11.65
2018-02-19T04:22:12.251Z,11.57
2018-02-19T04:24:39.887Z,10.85
2018-02-19T04:27:07.518Z,12.25
2018-02-19T04:29:35.029Z,10.40
2018-02-19T04:32:02.704Z,13.10
2018-02-19T04:34:30.239Z,12.32
2018-02-19T04:36:57.748Z,12.52
2018-02-19T04:39:25.286Z,12.63
2018-02-19T04:41:52.807Z,11.52
2018-02-19T04:44:27.162Z,11.88
2018-02-19T04:46:54.696Z,11.80
2018-02-19T04:49:22.213Z,13.73
2018-02-19T04:51:49.714Z,13.50
2018-02-19T04:54:17.239Z,13.95
2018-02-19T04:56:44.760Z,12.98
2018-02-19T04:59:13.139Z,11.52
2018-02-19T05:01:40.662Z,13.52
2018-02-19T05:04:08.237Z,11.63
2018-02-19T05:06:35.875Z,12.98
2018-02-19T05:09:03.581Z,13.45
2018-02-19T05:11:31.098Z,16.55
2018-02-19T05:13:59.511Z,13.85
2018-02-19T05:16:27.027Z,12.30
2018-02-19T05:18:54.616Z,14.77
2018-02-19T05:21:22.134Z,14.10
2018-02-19T05:23:49.752Z,12.50
2018-02-19T05:26:17.269Z,12.73
2018-02-19T05:28:44.856Z,13.05
2018-02-19T05:31:12.392Z,14.38
2018-02-19T05:33:40.684Z,14.27
2018-02-19T05:36:08.964Z,14.40
2018-02-19T05:38:37.382Z,15.60
2018-02-19T05:41:04.913Z,14.82
2018-02-19T05:43:32.477Z,13.93
2018-02-19T05:46:00.008Z,13.98
2018-02-19T05:48:28.302Z,16.17
2018-02-19T05:50:55.858Z,16.23
2018-02-19T05:53:23.512Z,16.35
2018-02-19T05:55:51.197Z,14.85
2018-02-19T05:58:18.869Z,16.50
2018-02-19T06:00:46.374Z,14.80
2018-02-19T06:03:13.906Z,16.90
2018-02-19T06:05:41.490Z,15.00
2018-02-19T06:08:09.000Z,16.62
2018-02-19T06:10:36.754Z,16.08
2018-02-19T06:13:04.426Z,18.00
2018-02-19T06:15:31.936Z,17.60
2018-02-19T06:17:59.435Z,16.62
2018-02-19T06:20:27.197Z,17.80
2018-02-19T06:22:54.713Z,17.75
2018-02-19T06:25:22.235Z,17.12
2018-02-19T06:27:49.999Z,16.75
2018-02-19T06:30:17.520Z,17.02
2018-02-19T06:32:45.838Z,17.12
2018-02-19T06:35:13.497Z,16.27
2018-02-19T06:37:41.012Z,18.15
2018-02-19T06:40:10.027Z,17.83
2018-02-19T06:42:41.820Z,17.90
2018-02-19T06:45:09.334Z,17.40
2018-02-19T06:47:36.908Z,17.87
2018-02-19T06:50:05.272Z,19.35
2018-02-19T06:52:32.955Z,18.77
2018-02-19T06:55:00.443Z,19.58
2018-02-19T06:57:27.986Z,14.85
2018-02-19T06:59:55.509Z,17.37
2018-02-19T07:02:24.636Z,16.35
2018-02-19T07:04:52.193Z,17.90
2018-02-19T07:07:19.712Z,17.37
2018-02-19T07:09:48.727Z,17.77
2018-02-19T07:12:17.067Z,17.02
2018-02-19T07:14:45.513Z,19.77
2018-02-19T07:17:13.100Z,19.08
2018-02-19T07:19:40.715Z,17.48
2018-02-19T07:22:09.045Z,18.95
2018-02-19T07:24:36.643Z,15.68
2018-02-19T07:27:04.168Z,19.62
2018-02-19T07:29:31.772Z,19.30
2018-02-19T07:31:59.291Z,20.67
2018-02-19T07:34:27.017Z,19.50
2018-02-19T07:36:54.559Z,17.00
2018-02-19T07:39:22.123Z,18.70
2018-02-19T07:41:50.526Z,19.95
2018-02-19T07:44:18.032Z,21.48
2018-02-19T07:46:45.575Z,17.83
2018-02-19T07:49:13.110Z,16.83
2018-02-19T07:51:40.656Z,17.73
2018-02-19T07:54:08.192Z,17.00
2018-02-19T07:56:36.472Z,17.80
2018-02-19T07:59:04.767Z,13.75
2018-02-19T08:01:32.513Z,18.40
2018-02-19T08:04:00.850Z,11.82
2018-02-19T08:06:28.399Z,20.33
2018-02-19T08:08:56.147Z,17.87
2018-02-19T08:11:23.754Z,15.57
2018-02-19T08:13:51.281Z,16.45
2018-02-19T08:16:18.790Z,22.60
2018-02-19T08:18:46.601Z,18.48
2018-02-19T08:21:14.135Z,18.58
2018-02-19T08:23:42.411Z,17.87
2018-02-19T08:26:10.072Z,18.73
2018-02-19T08:28:37.593Z,17.08
2018-02-19T08:31:05.202Z,18.80
2018-02-19T08:33:32.860Z,13.60
2018-02-19T08:36:00.419Z,17.70
2018-02-19T08:38:27.942Z,17.08
2018-02-19T08:40:55.656Z,17.73
2018-02-19T08:43:23.202Z,17.92
2018-02-19T08:45:50.795Z,21.17
2018-02-19T08:48:18.502Z,19.67
2018-02-19T08:50:46.123Z,17.48
2018-02-19T08:53:13.642Z,17.85
2018-02-19T08:55:41.953Z,17.20
2018-02-19T08:58:09.528Z,17.20
2018-02-19T09:00:37.030Z,17.00
2018-02-19T09:03:05.340Z,16.45
2018-02-19T09:05:33.021Z,17.65
2018-02-19T09:08:00.671Z,17.08
2018-02-19T09:10:28.211Z,17.20
2018-02-19T09:12:55.738Z,16.20
2018-02-19T09:15:24.046Z,20.62
2018-02-19T09:17:51.573Z,17.37
2018-02-19T09:20:19.098Z,16.00
2018-02-19T09:22:46.754Z,14.73
2018-02-19T09:25:14.279Z,16.45
2018-02-19T09:27:42.562Z,18.23
2018-02-19T09:30:10.166Z,17.35
2018-02-19T09:32:37.712Z,12.68
2018-02-19T09:35:05.447Z,18.40
2018-02-19T09:37:32.962Z,17.15
2018-02-19T09:40:00.477Z,17.85
2018-02-19T09:42:28.008Z,18.02
2018-02-19T09:44:56.427Z,16.90
2018-02-19T09:47:23.937Z,16.35
2018-02-19T09:49:51.558Z,18.40
2018-02-19T09:52:19.082Z,18.23
2018-02-19T09:54:46.595Z,17.65
2018-02-19T09:57:14.108Z,16.60
2018-02-19T09:59:41.652Z,20.75
2018-02-19T10:02:09.460Z,18.35
2018-02-19T10:04:36.967Z,18.15
2018-02-19T10:07:04.570Z,17.73
2018-02-19T10:09:32.087Z,16.62
2018-02-19T10:11:59.590Z,15.18
2018-02-19T10:14:27.098Z,14.75
2018-02-19T10:16:54.658Z,19.60
2018-02-19T10:19:22.170Z,19.12
2018-02-19T10:21:49.680Z,19.60
2018-02-19T10:24:18.738Z,18.02
2018-02-19T10:26:46.324Z,19.92
2018-02-19T10:29:13.945Z,24.85
2018-02-19T10:31:41.482Z,23.10
2018-02-19T10:34:08.988Z,20.55
2018-02-19T10:36:36.498Z,26.55
2018-02-19T10:39:04.067Z,17.80
2018-02-19T10:41:31.715Z,21.27
2018-02-19T10:43:59.267Z,19.55
2018-02-19T10:46:27.607Z,20.33
2018-02-19T10:48:55.157Z,18.12
2018-02-19T10:51:22.672Z,20.98
2018-02-19T10:53:50.960Z,20.40
2018-02-19T10:56:18.553Z,20.48
2018-02-19T10:58:46.105Z,24.55
2018-02-19T11:01:13.687Z,18.62
2018-02-19T11:03:41.304Z,19.80
2018-02-19T11:06:08.853Z,20.30
2018-02-19T11:08:37.156Z,20.30
2018-02-19T11:11:04.679Z,19.52
2018-02-19T11:13:32.262Z,21.15
2018-02-19T11:15:59.784Z,18.20
2018-02-19T11:18:28.803Z,20.60
2018-02-19T11:20:57.091Z,23.27
2018-02-19T11:23:24.666Z,19.48
2018-02-19T11:25:52.186Z,19.80
2018-02-19T11:28:20.475Z,16.75
2018-02-19T11:30:48.888Z,15.93
2018-02-19T11:33:16.419Z,18.65
2018-02-19T11:35:44.190Z,18.17
2018-02-19T11:38:12.580Z,16.73
2018-02-19T11:40:40.117Z,17.80
2018-02-19T11:43:07.692Z,19.25
2018-02-19T11:45:35.302Z,16.33
2018-02-19T11:48:02.837Z,16.30
2018-02-19T11:50:30.342Z,15.93
2018-02-19T11:52:57.996Z,15.05
2018-02-19T11:55:25.539Z,13.20
2018-02-19T11:57:53.055Z,17.02
2018-02-19T12:00:20.580Z,17.08
2018-02-19T12:02:48.283Z,18.92
2018-02-19T12:05:15.790Z,17.55
2018-02-19T12:07:43.324Z,18.95
2018-02-19T12:10:10.869Z,18.83
2018-02-19T12:12:38.386Z,17.52
2018-02-19T12:15:05.969Z,14.98
2018-02-19T12:17:33.518Z,16.60
2018-02-19T12:20:01.808Z,17.67
2018-02-19T12:22:29.345Z,18.17
2018-02-19T12:24:56.880Z,20.05
2018-02-19T12:27:24.412Z,17.37
2018-02-19T12:29:51.971Z,19.67
2018-02-19T12:32:19.489Z,18.83
2018-02-19T12:34:47.787Z,18.12
2018-02-19T12:37:15.389Z,16.20
2018-02-19T12:39:43.095Z,14.30
2018-02-19T12:42:11.404Z,17.12
2018-02-19T12:44:39.156Z,19.00
2018-02-19T12:47:06.734Z,19.48
2018-02-19T12:49:34.282Z,18.05
2018-02-19T12:52:01.808Z,18.12
2018-02-19T12:54:29.335Z,17.15
2018-02-19T12:56:56.991Z,17.80
2018-02-19T12:59:24.495Z,17.90
2018-02-19T13:01:52.032Z,17.95
2018-02-19T13:04:19.544Z,19.30
2018-02-19T13:06:47.113Z,17.23
2018-02-19T13:09:14.652Z,15.30
2018-02-19T13:11:42.186Z,14.68
2018-02-19T13:14:09.797Z,15.77
2018-02-19T13:16:37.377Z,20.05
2018-02-19T13:19:04.924Z,12.90
2018-02-19T13:21:32.473Z,14.18
2018-02-19T13:24:00.061Z,14.87
2018-02-19T13:26:27.608Z,16.33
2018-02-19T13:28:55.112Z,14.98
2018-02-19T13:31:23.424Z,15.88
2018-02-19T13:33:51.077Z,15.40
2018-02-19T13:36:19.559Z,14.63
2018-02-19T13:38:47.099Z,14.90
2018-02-19T13:41:14.655Z,13.95
2018-02-19T13:43:43.886Z,13.82
2018-02-19T13:46:11.405Z,15.88
2018-02-19T13:48:39.704Z,14.10
2018-02-19T13:51:07.404Z,15.88
2018-02-19T13:53:34.961Z,15.73
2018-02-19T13:56:02.526Z,15.25
2018-02-19T13:58:30.072Z,16.00
2018-02-19T14:00:57.615Z,14.60
2018-02-19T14:03:25.154Z,14.23
2018-02-19T14:05:53.425Z,14.43
2018-02-19T14:08:21.037Z,13.85
2018-02-19T14:10:48.587Z,14.40
2018-02-19T14:13:16.135Z,12.93
2018-02-19T14:15:43.672Z,12.35
2018-02-19T14:18:11.204Z,16.55
2018-02-19T14:20:38.736Z,13.95
2018-02-19T14:23:06.286Z,14.00
2018-02-19T14:25:33.794Z,16.73
2018-02-19T14:28:01.330Z,16.65
2018-02-19T14:30:28.911Z,19.48
2018-02-19T14:32:56.422Z,15.88
2018-02-19T14:35:24.111Z,15.27
2018-02-19T14:37:51.723Z,16.62
2018-02-19T14:40:19.209Z,16.08
2018-02-19T14:42:46.738Z,15.82
2018-02-19T14:45:14.261Z,16.98
2018-02-19T14:47:41.768Z,17.05
2018-02-19T14:50:10.070Z,15.20
2018-02-19T14:52:37.604Z,15.57
2018-02-19T14:55:05.162Z,15.05
2018-02-19T14:57:33.438Z,13.75
2018-02-19T15:00:01.844Z,13.18
2018-02-19T15:02:29.384Z,13.82
2018-02-19T15:04:56.974Z,14.70
2018-02-19T15:07:24.496Z,16.70
2018-02-19T15:09:52.771Z,14.00
2018-02-19T15:12:21.109Z,17.02
2018-02-19T15:14:48.735Z,15.35
2018-02-19T15:17:16.401Z,15.75
2018-02-19T15:19:43.954Z,15.50
2018-02-19T15:22:11.619Z,16.17
2018-02-19T15:24:39.139Z,15.40
2018-02-19T15:27:07.465Z,15.50
2018-02-19T15:29:34.990Z,15.85
2018-02-19T15:32:02.662Z,15.85
2018-02-19T15:34:30.209Z,18.15
2018-02-19T15:36:58.491Z,16.67
2018-02-19T15:39:26.794Z,16.10
2018-02-19T15:41:54.360Z,15.23
2018-02-19T15:44:21.888Z,15.93
2018-02-19T15:46:50.146Z,15.63
2018-02-19T15:49:17.761Z,15.25
2018-02-19T15:51:45.295Z,14.85
2018-02-19T15:54:13.601Z,17.17
2018-02-19T15:56:41.138Z,17.90
2018-02-19T15:59:08.681Z,17.55
2018-02-19T16:01:37.083Z,18.15
2018-02-19T16:04:04.671Z,15.40
2018-02-19T16:06:32.196Z,18.27
2018-02-19T16:08:59.736Z,14.65
2018-02-19T16:11:28.065Z,16.70
2018-02-19T16:13:55.692Z,16.55
2018-02-19T16:16:23.200Z,14.18
2018-02-19T16:18:50.725Z,17.55
2018-02-19T16:21:18.263Z,17.23
2018-02-19T16:23:46.666Z,14.93
2018-02-19T16:26:14.203Z,15.65
2018-02-19T16:28:42.547Z,15.82
2018-02-19T16:31:10.073Z,15.48
2018-02-19T16:33:37.581Z,17.65
2018-02-19T16:36:05.882Z,15.55
2018-02-19T16:38:33.589Z,18.02
2018-02-19T16:41:01.141Z,18.15
2018-02-19T16:43:28.676Z,20.88
2018-02-19T16:45:56.231Z,18.00
2018-02-19T16:48:23.772Z,20.58
2018-02-19T16:50:52.100Z,19.52
2018-02-19T16:53:19.659Z,16.45
2018-02-19T16:55:47.286Z,18.87
2018-02-19T16:58:14.844Z,17.27
2018-02-19T17:00:42.375Z,17.48
2018-02-19T17:03:09.923Z,17.35
2018-02-19T17:05:37.461Z,18.70
2018-02-19T17:08:05.084Z,18.35
2018-02-19T17:10:33.397Z,18.67
2018-02-19T17:13:00.951Z,19.37
2018-02-19T17:15:28.486Z,18.40
2018-02-19T17:17:56.015Z,18.70
2018-02-19T17:20:23.574Z,17.65
2018-02-19T17:22:51.118Z,18.45
2018-02-19T17:25:18.783Z,20.80
2018-02-19T17:27:46.297Z,18.77
2018-02-19T17:30:13.815Z,19.25
2018-02-19T17:32:41.636Z,20.02
2018-02-19T17:35:09.314Z,20.12
2018-02-19T17:37:36.830Z,19.40
2018-02-19T17:40:05.129Z,20.15
2018-02-19T17:42:32.657Z,21.73
2018-02-19T17:45:00.971Z,22.52
2018-02-19T17:47:28.517Z,20.15
2018-02-19T17:49:56.037Z,22.27
2018-02-19T17:52:23.550Z,23.33
2018-02-19T17:54:51.069Z,21.30
2018-02-19T17:57:19.362Z,19.12
2018-02-19T17:59:47.952Z,23.15
2018-02-19T18:02:15.489Z,19.52
2018-02-19T18:04:43.795Z,20.40
2018-02-19T18:07:11.410Z,20.33
2018-02-19T18:09:39.122Z,20.90
2018-02-19T18:12:06.676Z,21.05
2018-02-19T18:14:34.263Z,21.30
2018-02-19T18:17:01.781Z,20.37
2018-02-19T18:19:29.349Z,21.95
2018-02-19T18:21:56.888Z,21.87
2018-02-19T18:24:24.454Z,22.33
2018-02-19T18:26:52.761Z,23.25
2018-02-19T18:29:20.399Z,23.02
2018-02-19T18:31:47.958Z,22.42
2018-02-19T18:34:15.654Z,23.02
2018-02-19T18:36:43.180Z,26.15
2018-02-19T18:39:10.741Z,22.65
2018-02-19T18:41:38.264Z,23.73
2018-02-19T18:44:05.790Z,22.08
2018-02-19T18:46:33.309Z,22.00
2018-02-19T18:49:01.626Z,25.98
2018-02-19T18:51:29.161Z,27.37
2018-02-19T18:53:57.586Z,23.10
2018-02-19T18:56:25.090Z,25.15
2018-02-19T18:58:53.410Z,25.55
2018-02-19T19:01:20.922Z,23.25
2018-02-19T19:03:48.457Z,24.90
2018-02-19T19:06:16.017Z,25.10
2018-02-19T19:08:55.603Z,23.05
2018-02-19T19:11:23.198Z,22.70
2018-02-19T19:13:50.759Z,23.45
2018-02-19T19:16:18.270Z,25.30
2018-02-19T19:18:46.591Z,24.00
2018-02-19T19:21:14.117Z,26.62
2018-02-19T19:23:42.565Z,25.37
2018-02-19T19:26:10.109Z,22.98
2018-02-19T19:28:37.664Z,22.85
2018-02-19T19:31:05.352Z,24.83
2018-02-19T19:33:33.031Z,23.55
2018-02-19T19:36:00.931Z,36.63
2018-02-19T19:38:28.506Z,24.65
2018-02-19T19:40:56.133Z,26.23
2018-02-19T19:43:24.468Z,22.13
2018-02-19T19:45:51.972Z,21.70
2018-02-19T19:48:19.575Z,23.23
2018-02-19T19:50:47.147Z,24.42
2018-02-19T19:53:14.682Z,25.55
2018-02-19T19:55:42.316Z,24.75
2018-02-19T19:58:11.708Z,23.40
2018-02-19T20:00:43.015Z,25.08
2018-02-19T20:03:10.699Z,22.83
2018-02-19T20:05:39.034Z,22.48
2018-02-19T20:08:10.817Z,24.20
2018-02-19T20:10:38.459Z,22.92
2018-02-19T20:13:06.029Z,25.23
2018-02-19T20:15:33.780Z,22.67
2018-02-19T20:18:01.340Z,23.50
2018-02-19T20:20:28.870Z,22.83
2018-02-19T20:22:57.160Z,23.85
2018-02-19T20:25:26.000Z,23.17
2018-02-19T20:27:53.636Z,23.20
2018-02-19T20:30:21.399Z,22.10
2018-02-19T20:32:49.259Z,26.27
2018-02-19T20:35:16.859Z,23.75
2018-02-19T20:37:44.412Z,23.67
2018-02-19T20:40:12.852Z,22.77
2018-02-19T20:42:40.471Z,22.23
2018-02-19T20:45:08.073Z,24.05
2018-02-19T20:47:36.368Z,23.08
2018-02-19T20:50:03.959Z,24.35
2018-02-19T20:52:31.489Z,22.27
2018-02-19T20:54:59.017Z,24.37
2018-02-19T20:57:26.576Z,22.35
2018-02-19T20:59:54.915Z,23.10
2018-02-19T21:02:22.470Z,22.98
2018-02-19T21:04:50.027Z,26.65
2018-02-19T21:07:17.803Z,23.85
2018-02-19T21:09:45.343Z,23.95
2018-02-19T21:12:12.863Z,23.05
2018-02-19T21:14:40.514Z,22.27
2018-02-19T21:17:08.849Z,21.92
2018-02-19T21:19:36.397Z,21.40
2018-02-19T21:22:04.167Z,22.20
2018-02-19T21:24:31.825Z,23.17
2018-02-19T21:26:59.390Z,23.20
2018-02-19T21:29:26.975Z,24.63
2018-02-19T21:32:00.367Z,22.55
2018-02-19T21:34:28.034Z,26.42
2018-02-19T21:36:56.483Z,25.35
2018-02-19T21:39:24.113Z,22.80
2018-02-19T21:41:52.404Z,25.10
2018-02-19T21:44:19.916Z,24.12
2018-02-19T21:46:47.521Z,26.27
2018-02-19T21:49:15.055Z,27.70
2018-02-19T21:51:42.584Z,25.20
2018-02-19T21:54:10.277Z,25.30
2018-02-19T21:56:37.866Z,25.12
2018-02-19T21:59:05.423Z,24.65
2018-02-19T22:01:33.757Z,21.67
2018-02-19T22:04:01.449Z,25.85
2018-02-19T22:06:29.846Z,27.73
2018-02-19T22:08:57.452Z,23.52
2018-02-19T22:11:25.031Z,22.95
2018-02-19T22:13:52.625Z,23.52
2018-02-19T22:16:20.172Z,22.08
2018-02-19T22:18:48.487Z,23.17
2018-02-19T22:21:16.043Z,24.48
2018-02-19T22:23:43.699Z,23.70
2018-02-19T22:26:11.268Z,23.75
2018-02-19T22:28:39.032Z,27.92
2018-02-19T22:31:07.485Z,23.98
2018-02-19T22:33:35.056Z,23.52
2018-02-19T22:36:03.365Z,26.20
2018-02-19T22:38:30.947Z,24.30
2018-02-19T22:40:58.530Z,23.95
2018-02-19T22:43:26.062Z,26.08
2018-02-19T22:45:53.641Z,27.87
2018-02-19T22:48:21.156Z,25.95
2018-02-19T22:50:48.694Z,27.75
2018-02-19T22:53:16.220Z,27.75
2018-02-19T22:55:43.740Z,24.63
2018-02-19T22:58:11.243Z,28.25
2018-02-19T23:00:38.743Z,30.70
2018-02-19T23:03:06.274Z,24.80
2018-02-19T23:05:33.862Z,33.75
2018-02-19T23:08:01.440Z,25.37
2018-02-19T23:10:28.989Z,26.58
2018-02-19T23:12:57.297Z,28.33
2018-02-19T23:15:25.408Z,27.37
2018-02-19T23:17:52.958Z,26.42
2018-02-19T23:20:20.464Z,25.02
2018-02-19T23:22:48.032Z,25.37
2018-02-19T23:25:15.564Z,28.83
2018-02-19T23:27:43.139Z,25.75
2018-02-19T23:30:10.664Z,29.35
2018-02-19T23:32:38.971Z,26.62
2018-02-19T23:35:06.602Z,27.95
2018-02-19T23:37:34.886Z,26.95
2018-02-19T23:40:03.193Z,25.42
2018-02-19T23:42:31.597Z,25.58
2018-02-19T23:44:59.918Z,27.40
2018-02-19T23:47:28.578Z,30.98
2018-02-19T23:49:56.143Z,28.58
2018-02-19T23:52:23.662Z,26.98
2018-02-19T23:54:51.260Z,27.17
2018-02-19T23:57:18.827Z,27.83
2018-02-19T23:59:46.380Z,30.67
